Citta Di Savona — IMDS — position and weather

sailwx.info

Track history (hours):
 
Tides and Currents Weather Stations Pressure Air Temp Water Temp Dewpoint Dewpoint Depression Visibility Wind Speed Wind Dir Waves Ship Positions

Citta Di Savona

Last reported at 2015-Jul-28 04:19 UTC. Time now 2015-Jul-28 05:44 UTC.
Position N 44°18' E 008°29'.

Length 31 m; draft 4.2 m.

Type: Tug. MMSI: 247402000.

Date/timePositionNaut miles runAvg speedWind from/ knotsBaromVisibWave heightAir tempDewpointWater temp
2015-Jul-28 04:19N 44°18' E 008°29'0 0.0
2015-Jul-27 17:22N 44°18' E 008°29'1 1.6
2015-Jul-27 16:33N 44°17' E 008°29'2 2.0
2015-Jul-27 15:30N 44°16' E 008°27'0 0.0
2015-Jul-27 14:30N 44°16' E 008°27'0 0.0
2015-Jul-27 13:30N 44°16' E 008°27'0 0.0
2015-Jul-27 12:30N 44°16' E 008°27'1 1.0
2015-Jul-27 11:28N 44°17' E 008°28'0 0.3
2015-Jul-27 10:33N 44°17' E 008°27'1 1.1
2015-Jul-27 09:28N 44°16' E 008°27'0 0.0
2015-Jul-27 08:28N 44°16' E 008°27'0 0.0
2015-Jul-26 14:33N 44°16' E 008°27'1 0.9
2015-Jul-26 13:33N 44°17' E 008°28'1 1.1
2015-Jul-26 12:34N 44°17' E 008°29'1 0.1
2015-Jul-25 13:31N 44°19' E 008°29'3 1.7
2015-Jul-25 11:33N 44°16' E 008°27'0 0.0
2015-Jul-25 10:33N 44°16' E 008°27'0 0.0
2015-Jul-25 09:33N 44°16' E 008°27'0 0.1
2015-Jul-25 08:24N 44°16' E 008°27'0 0.1
2015-Jul-25 07:06N 44°16' E 008°27'0 0.0
2015-Jul-25 05:30N 44°16' E 008°27'0 0.0
2015-Jul-25 04:31N 44°16' E 008°27'0 0.0
2015-Jul-24 12:30N 44°16' E 008°27'0 0.0
2015-Jul-24 11:18N 44°16' E 008°27'0 0.0
2015-Jul-24 10:27N 44°16' E 008°27'0 0.0
2015-Jul-24 05:09N 44°16' E 008°27'0 0.4
2015-Jul-24 04:33N 44°16' E 008°27'0 0.0
2015-Jul-23 12:27N 44°16' E 008°27'0 0.0
2015-Jul-23 05:30N 44°16' E 008°27'0 0.1
2015-Jul-23 04:29N 44°16' E 008°27'0 0.0
2015-Jul-22 07:30N 44°16' E 008°27'0 0.0
2015-Jul-22 06:33N 44°16' E 008°27'0 0.0
2015-Jul-22 05:33N 44°16' E 008°27'0 0.0
2015-Jul-22 04:33N 44°16' E 008°27'0 0.0
2015-Jul-22 03:33N 44°16' E 008°27'0 0.0
2015-Jul-22 02:15N 44°16' E 008°27'0 0.0
2015-Jul-22 01:33N 44°16' E 008°27'0 0.0
2015-Jul-22 00:27N 44°16' E 008°27'0 0.0
2015-Jul-21 23:15N 44°16' E 008°27'0 0.0
2015-Jul-21 22:33N 44°16' E 008°27'0 0.0
2015-Jul-21 12:25N 44°16' E 008°27'0 0.0
2015-Jul-21 10:19N 44°16' E 008°27'0 0.0
2015-Jul-21 09:31N 44°16' E 008°27'1 0.0
2015-Jul-20 08:14N 44°16' E 008°28'0 0.2
2015-Jul-20 07:32N 44°17' E 008°28'1 0.5
2015-Jul-20 05:23N 44°16' E 008°27'0 0.0
2015-Jul-20 04:11N 44°16' E 008°27'0 0.0
2015-Jul-20 03:23N 44°16' E 008°27'0 0.0
2015-Jul-20 01:29N 44°16' E 008°27'0 0.0
2015-Jul-19 23:17N 44°16' E 008°27'0 0.0
2015-Jul-19 11:31N 44°16' E 008°27'0 0.0
2015-Jul-19 10:31N 44°16' E 008°27'0 0.0
2015-Jul-19 09:31N 44°16' E 008°27'0 0.0
2015-Jul-19 08:31N 44°16' E 008°27'0 0.0
2015-Jul-19 07:31N 44°16' E 008°27'0 0.1
2015-Jul-19 06:31N 44°16' E 008°27'1 0.8
2015-Jul-19 05:28N 44°17' E 008°28'0 0.5
2015-Jul-19 04:33N 44°16' E 008°28'1 0.1
2015-Jul-18 17:31N 44°16' E 008°27'0 0.0
2015-Jul-18 16:31N 44°16' E 008°27'0 0.0
2015-Jul-18 15:31N 44°16' E 008°27'0 0.0
2015-Jul-18 14:31N 44°16' E 008°27'0 0.0
2015-Jul-18 13:31N 44°16' E 008°27'0 0.0
2015-Jul-18 12:31N 44°16' E 008°27'0 0.0
2015-Jul-18 11:25N 44°16' E 008°27'0 0.0
2015-Jul-18 10:25N 44°16' E 008°27'0 0.0
2015-Jul-18 09:31N 44°16' E 008°27'0 0.0
2015-Jul-18 08:31N 44°16' E 008°27'0 0.0
2015-Jul-18 07:31N 44°16' E 008°27'0 0.0
2015-Jul-18 06:25N 44°16' E 008°27'0 0.0
2015-Jul-18 05:31N 44°16' E 008°27'0 0.0
2015-Jul-18 04:31N 44°16' E 008°27'  
Track history (hours):
 
Tides and Currents Weather Stations Pressure Air Temp Water Temp Dewpoint Dewpoint Depression Visibility Wind Speed Wind Dir Waves Ship Positions

Citta Di Savona

Last reported at 2015-Jul-28 04:19 UTC. Time now 2015-Jul-28 05:44 UTC.
Position N 44°18' E 008°29'.

Length 31 m; draft 4.2 m.

Type: Tug. MMSI: 247402000.

Date/timePositionNaut miles runAvg speedWind from/ knotsBaromVisibWave heightAir tempDewpointWater temp
2015-Jul-28 04:19N 44°18' E 008°29'0 0.0
2015-Jul-27 17:22N 44°18' E 008°29'1 1.6
2015-Jul-27 16:33N 44°17' E 008°29'2 2.0
2015-Jul-27 15:30N 44°16' E 008°27'0 0.0
2015-Jul-27 14:30N 44°16' E 008°27'0 0.0
2015-Jul-27 13:30N 44°16' E 008°27'0 0.0
2015-Jul-27 12:30N 44°16' E 008°27'1 1.0
2015-Jul-27 11:28N 44°17' E 008°28'0 0.3
2015-Jul-27 10:33N 44°17' E 008°27'1 1.1
2015-Jul-27 09:28N 44°16' E 008°27'0 0.0
2015-Jul-27 08:28N 44°16' E 008°27'0 0.0
2015-Jul-26 14:33N 44°16' E 008°27'1 0.9
2015-Jul-26 13:33N 44°17' E 008°28'1 1.1
2015-Jul-26 12:34N 44°17' E 008°29'1 0.1
2015-Jul-25 13:31N 44°19' E 008°29'3 1.7
2015-Jul-25 11:33N 44°16' E 008°27'0 0.0
2015-Jul-25 10:33N 44°16' E 008°27'0 0.0
2015-Jul-25 09:33N 44°16' E 008°27'0 0.1
2015-Jul-25 08:24N 44°16' E 008°27'0 0.1
2015-Jul-25 07:06N 44°16' E 008°27'0 0.0
2015-Jul-25 05:30N 44°16' E 008°27'0 0.0
2015-Jul-25 04:31N 44°16' E 008°27'0 0.0
2015-Jul-24 12:30N 44°16' E 008°27'0 0.0
2015-Jul-24 11:18N 44°16' E 008°27'0 0.0
2015-Jul-24 10:27N 44°16' E 008°27'0 0.0
2015-Jul-24 05:09N 44°16' E 008°27'0 0.4
2015-Jul-24 04:33N 44°16' E 008°27'0 0.0
2015-Jul-23 12:27N 44°16' E 008°27'0 0.0
2015-Jul-23 05:30N 44°16' E 008°27'0 0.1
2015-Jul-23 04:29N 44°16' E 008°27'0 0.0
2015-Jul-22 07:30N 44°16' E 008°27'0 0.0
2015-Jul-22 06:33N 44°16' E 008°27'0 0.0
2015-Jul-22 05:33N 44°16' E 008°27'0 0.0
2015-Jul-22 04:33N 44°16' E 008°27'0 0.0
2015-Jul-22 03:33N 44°16' E 008°27'0 0.0
2015-Jul-22 02:15N 44°16' E 008°27'0 0.0
2015-Jul-22 01:33N 44°16' E 008°27'0 0.0
2015-Jul-22 00:27N 44°16' E 008°27'0 0.0
2015-Jul-21 23:15N 44°16' E 008°27'0 0.0
2015-Jul-21 22:33N 44°16' E 008°27'0 0.0
2015-Jul-21 12:25N 44°16' E 008°27'0 0.0
2015-Jul-21 10:19N 44°16' E 008°27'0 0.0
2015-Jul-21 09:31N 44°16' E 008°27'1 0.0
2015-Jul-20 08:14N 44°16' E 008°28'0 0.2
2015-Jul-20 07:32N 44°17' E 008°28'1 0.5
2015-Jul-20 05:23N 44°16' E 008°27'0 0.0
2015-Jul-20 04:11N 44°16' E 008°27'0 0.0
2015-Jul-20 03:23N 44°16' E 008°27'0 0.0
2015-Jul-20 01:29N 44°16' E 008°27'0 0.0
2015-Jul-19 23:17N 44°16' E 008°27'0 0.0
2015-Jul-19 11:31N 44°16' E 008°27'0 0.0
2015-Jul-19 10:31N 44°16' E 008°27'0 0.0
2015-Jul-19 09:31N 44°16' E 008°27'0 0.0
2015-Jul-19 08:31N 44°16' E 008°27'0 0.0
2015-Jul-19 07:31N 44°16' E 008°27'0 0.1
2015-Jul-19 06:31N 44°16' E 008°27'1 0.8
2015-Jul-19 05:28N 44°17' E 008°28'0 0.5
2015-Jul-19 04:33N 44°16' E 008°28'1 0.1
2015-Jul-18 17:31N 44°16' E 008°27'0 0.0
2015-Jul-18 16:31N 44°16' E 008°27'0 0.0
2015-Jul-18 15:31N 44°16' E 008°27'0 0.0
2015-Jul-18 14:31N 44°16' E 008°27'0 0.0
2015-Jul-18 13:31N 44°16' E 008°27'0 0.0
2015-Jul-18 12:31N 44°16' E 008°27'0 0.0
2015-Jul-18 11:25N 44°16' E 008°27'0 0.0
2015-Jul-18 10:25N 44°16' E 008°27'0 0.0
2015-Jul-18 09:31N 44°16' E 008°27'0 0.0
2015-Jul-18 08:31N 44°16' E 008°27'0 0.0
2015-Jul-18 07:31N 44°16' E 008°27'0 0.0
2015-Jul-18 06:25N 44°16' E 008°27'0 0.0
2015-Jul-18 05:31N 44°16' E 008°27'0 0.0
2015-Jul-18 04:31N 44°16' E 008°27'  

Dump ship's entire track history